Alberta, VA

6:59 AM EDT on April 19, 2015 (GMT -0400)
Mecklenburg-Brunswick Regional | | Change Station
CLOSE
Current Station
Airport
Location: South Hill,
Elevation: 443 ft
Nearby Weather Stations
Active Advisory: Special Statement

Elev 443 ft 36.69 °N, 78.05 °W | Updated 23 minutes ago

Overcast
Overcast
59 °F
Feels Like 59 °F
N
0
Wind Variable Wind from North

Today
High -- | Low -- °F
--% Chance of Precip.
Yesterday
High -- | Low -- °F
Precip. -- in
6:32 AM 7:49 PM
New Moon, 1% visible
Pressure 30.07 in
Visibility 4.0 miles
Clouds Mostly Cloudy 100 ft
Overcast 12000 ft
Dew Point 59 °F
Humidity 99%
Rainfall 0.00 in
Snow Depth Not available.
UV 0 out of 12
Pollen 11.20 out of 12
Air Quality Not available.
Flu Activity Local Activity
METAR KAVC 191036Z AUTO 00000KT 4SM BKN001 OVC120 15/15 A3007 RMK AO2 T01500149

More Conditions Fewer Conditions

Pressure 30.07 in
Visibility 4.0 miles
Clouds Mostly Cloudy 100 ft
Overcast 12000 ft
Dew Point 59 °F
Humidity 99%
Rainfall 0.00 in
Snow Depth Not available.
UV 0 out of 12
Pollen 11.20 out of 12
Air Quality Not available.
Flu Activity Local Activity
METAR KAVC 191036Z AUTO 00000KT 4SM BKN001 OVC120 15/15 A3007 RMK AO2 T01500149

More Conditions Fewer Conditions

10-Day Weather Forecast

Almanac

Astronomy

Apr. 19, 2015 Rise Set
Actual Time
Civil Twilight
Nautical Twilight
Astronomical Twilight
Moon
Length of Visible Light
Length of Day
Tomorrow will be .
, % of the Moon is Illuminated

Today's Extremes

State Highs State Lows

Community

WunderPhotos

Upload Photos

1,814,759 photos uploaded!

WunderBlogs® & News

Nearby

Air Quality

  Air Quality AQ Index Pollutant
Not available.

Snow Depth

Station Depth Elevation

Earthquake Activity

City Distance Mag. Time & Date
Minimum magnitude displayed is 2.5.

Coastal Water Temperatures

Place Temperature

Stations

Nearby Weather Stations

Station Location Temp. Windchill Dew Point Humidity Wind Precip. Elev Updated Type
                   
Special Statement
Statement as of 5:41 AM EDT on April 19, 2015

... Locally dense fog across southeast Virginia and northeast North
Carolina this morning...

Locally dense fog will reduce visibility to around a quarter mile
across parts of southeast Virginia and northeast North Carolina
through 8 am.

Motorists should be alert for sudden changes in visibility while
traveling this morning. Drive at reduced speeds and use low beam
headlights.



Jm


541 am EDT sun Apr 19 2015

... Locally dense fog across southeast Virginia and northeast North
Carolina this morning...

Locally dense fog will reduce visibility to around a quarter mile
across parts of southeast Virginia and northeast North Carolina
through 8 am.

Motorists should be alert for sudden changes in visibility while
traveling this morning. Drive at reduced speeds and use low beam
headlights.



Jm